Time;durP1;ratioP1;P1;durP2;ratioP2;P2;SDS_P1;SDS_P2;PMS_P1;PMS_P2;Temp;Humidity;BMP_temperature;BMP_pressure;BME280_temperature;BME280_humidity;BME280_pressure;Samples;Min_cycle;Max_cycle;Signal;HPM_P1;HPM_P2
2023/12/05 00:03:05;;;;;;;11.85;8.02;;;;;;;;;;10540090;28;20181;-76
2023/12/05 00:08:08;;;;;;;10.32;7.88;;;;;;;;;;10558707;28;20416;-76
2023/12/05 00:13:13;;;;;;;10.98;7.15;;;;;;;;;;10543862;28;20044;-75
2023/12/05 00:18:16;;;;;;;12.18;7.65;;;;;;;;;;10551247;28;20047;-76
2023/12/05 00:23:19;;;;;;;7.90;5.70;;;;;;;;;;10557492;28;20056;-76
2023/12/05 00:28:24;;;;;;;7.97;5.68;;;;;;;;;;10548037;28;20516;-76
2023/12/05 00:33:27;;;;;;;9.35;6.43;;;;;;;;;;10549852;28;20032;-76
2023/12/05 00:38:30;;;;;;;9.98;6.47;;;;;;;;;;10546871;28;20052;-76
2023/12/05 00:43:35;;;;;;;8.10;6.20;;;;;;;;;;10553137;28;20036;-76
2023/12/05 00:48:39;;;;;;;9.63;6.68;;;;;;;;;;10543260;28;20039;-76
2023/12/05 00:53:42;;;;;;;10.80;7.28;;;;;;;;;;10562914;28;20400;-76
2023/12/05 00:58:46;;;;;;;8.05;5.43;;;;;;;;;;10544417;28;20666;-76
2023/12/05 01:03:51;;;;;;;8.68;6.10;;;;;;;;;;10543936;28;20059;-75
2023/12/05 01:08:54;;;;;;;12.63;6.95;;;;;;;;;;10542169;28;20036;-76
2023/12/05 01:13:59;;;;;;;11.45;7.28;;;;;;;;;;10545927;28;20071;-76
2023/12/05 01:19:02;;;;;;;9.35;5.95;;;;;;;;;;10546662;28;20037;-76
2023/12/05 01:24:07;;;;;;;9.18;6.70;;;;;;;;;;10538929;28;20036;-75
2023/12/05 01:29:11;;;;;;;10.07;6.53;;;;;;;;;;10532582;28;20562;-75
2023/12/05 01:34:14;;;;;;;10.07;7.32;;;;;;;;;;10548707;28;20036;-75
2023/12/05 01:39:18;;;;;;;8.73;6.68;;;;;;;;;;10540493;28;20048;-75
2023/12/05 01:44:22;;;;;;;9.98;7.10;;;;;;;;;;10546733;28;20512;-75
2023/12/05 01:49:25;;;;;;;10.50;8.02;;;;;;;;;;10544747;28;20366;-75
2023/12/05 01:54:33;;;;;;;8.65;6.50;;;;;;;;;;10546520;28;20473;-75
2023/12/05 01:59:37;;;;;;;11.40;8.63;;;;;;;;;;10536339;28;20058;-75
2023/12/05 02:11:05;;;;;;;12.25;7.90;;;;;;;;;;10530025;28;20078;-75
2023/12/05 02:16:17;;;;;;;9.32;6.78;;;;;;;;;;10533795;28;20040;-75
2023/12/05 02:21:26;;;;;;;10.82;8.23;;;;;;;;;;10540301;28;20133;-75
2023/12/05 02:26:36;;;;;;;11.30;7.90;;;;;;;;;;10532021;28;20742;-75
2023/12/05 02:31:41;;;;;;;9.95;7.32;;;;;;;;;;10534099;28;20044;-75
2023/12/05 02:36:51;;;;;;;12.98;8.52;;;;;;;;;;10511336;28;20127;-75
2023/12/05 02:41:56;;;;;;;10.63;7.43;;;;;;;;;;10538739;28;20060;-75
2023/12/05 02:47:02;;;;;;;10.77;8.10;;;;;;;;;;10528101;28;20032;-75
2023/12/05 02:52:06;;;;;;;14.27;10.13;;;;;;;;;;10511264;28;20135;-75
2023/12/05 02:57:09;;;;;;;12.15;8.25;;;;;;;;;;10529946;28;20396;-75
2023/12/05 03:02:14;;;;;;;13.73;9.48;;;;;;;;;;10530073;28;20115;-75
2023/12/05 03:07:17;;;;;;;11.40;8.00;;;;;;;;;;10528536;28;20089;-75
2023/12/05 03:12:21;;;;;;;9.80;6.68;;;;;;;;;;10511516;28;20484;-75
2023/12/05 03:17:25;;;;;;;8.50;6.20;;;;;;;;;;10511937;28;20040;-75
2023/12/05 03:22:28;;;;;;;8.23;6.13;;;;;;;;;;10536294;28;20044;-75
2023/12/05 03:27:32;;;;;;;8.30;6.30;;;;;;;;;;10511162;28;20126;-75
2023/12/05 03:32:37;;;;;;;7.85;5.68;;;;;;;;;;10533309;28;20060;-75
2023/12/05 03:37:40;;;;;;;9.05;6.78;;;;;;;;;;10523345;28;20070;-75
2023/12/05 03:42:43;;;;;;;9.00;6.38;;;;;;;;;;10518304;28;20052;-75
2023/12/05 03:47:47;;;;;;;8.02;5.97;;;;;;;;;;10533285;28;20040;-75
2023/12/05 03:52:51;;;;;;;8.60;6.40;;;;;;;;;;10514442;28;20060;-75
2023/12/05 03:57:54;;;;;;;5.90;4.60;;;;;;;;;;10534475;28;20028;-75
2023/12/05 04:02:59;;;;;;;6.47;5.00;;;;;;;;;;10530753;28;20068;-75
2023/12/05 04:08:02;;;;;;;6.10;4.93;;;;;;;;;;10532684;28;20043;-75
2023/12/05 04:13:05;;;;;;;5.85;4.38;;;;;;;;;;10519099;28;20131;-75
2023/12/05 04:18:10;;;;;;;7.18;4.45;;;;;;;;;;10541832;28;20122;-75
2023/12/05 04:23:13;;;;;;;9.18;6.80;;;;;;;;;;10551213;28;20044;-75
2023/12/05 04:28:16;;;;;;;6.20;4.68;;;;;;;;;;10551887;28;20036;-75
2023/12/05 04:33:21;;;;;;;7.03;4.82;;;;;;;;;;10547990;28;20043;-75
2023/12/05 04:38:24;;;;;;;6.95;4.82;;;;;;;;;;10552745;28;20038;-75
2023/12/05 04:43:27;;;;;;;4.25;3.30;;;;;;;;;;10560088;28;20441;-75
2023/12/05 04:48:32;;;;;;;4.35;3.25;;;;;;;;;;10553539;28;20476;-75
2023/12/05 04:53:35;;;;;;;3.80;3.10;;;;;;;;;;10548799;28;20068;-75
2023/12/05 04:58:39;;;;;;;5.68;4.53;;;;;;;;;;10548208;28;20036;-75
2023/12/05 05:03:43;;;;;;;5.18;3.80;;;;;;;;;;10551844;28;20040;-75
2023/12/05 05:08:46;;;;;;;6.20;4.25;;;;;;;;;;10554829;28;20619;-75
2023/12/05 05:13:50;;;;;;;4.60;3.20;;;;;;;;;;10552297;28;20032;-75
2023/12/05 05:18:56;;;;;;;4.40;3.20;;;;;;;;;;10512071;28;20135;-75
2023/12/05 05:23:59;;;;;;;4.38;3.15;;;;;;;;;;10517820;28;20048;-75
2023/12/05 05:29:03;;;;;;;3.20;2.50;;;;;;;;;;10541520;28;20115;-75
2023/12/05 05:34:08;;;;;;;3.78;3.22;;;;;;;;;;10530057;28;20083;-75
2023/12/05 05:39:12;;;;;;;6.45;4.40;;;;;;;;;;10540303;28;20044;-75
2023/12/05 05:44:15;;;;;;;5.50;3.47;;;;;;;;;;10550044;28;20032;-75
2023/12/05 05:49:19;;;;;;;4.07;3.05;;;;;;;;;;10536364;28;20060;-75
2023/12/05 05:54:23;;;;;;;4.20;3.40;;;;;;;;;;10559793;22;20134;-75
2023/12/05 05:59:26;;;;;;;5.18;3.58;;;;;;;;;;10559184;28;20036;-75
2023/12/05 06:04:32;;;;;;;4.60;3.20;;;;;;;;;;10568321;28;20067;-75
2023/12/05 06:09:35;;;;;;;5.22;3.22;;;;;;;;;;10570852;28;20036;-75
2023/12/05 06:14:39;;;;;;;5.25;3.28;;;;;;;;;;10572985;28;20039;-75
2023/12/05 06:19:44;;;;;;;5.75;3.60;;;;;;;;;;10569941;28;20096;-75
2023/12/05 06:24:47;;;;;;;5.53;3.25;;;;;;;;;;10568074;28;20047;-75
2023/12/05 06:29:50;;;;;;;3.72;2.80;;;;;;;;;;10572522;27;20040;-75
2023/12/05 06:34:55;;;;;;;3.50;2.85;;;;;;;;;;10572205;28;20096;-75
2023/12/05 06:39:58;;;;;;;3.95;2.90;;;;;;;;;;10571065;28;20042;-75
2023/12/05 06:45:02;;;;;;;3.55;3.00;;;;;;;;;;10572770;27;20650;-75
2023/12/05 06:50:10;;;;;;;5.47;3.38;;;;;;;;;;10566326;28;20270;-75
2023/12/05 06:55:14;;;;;;;4.78;3.00;;;;;;;;;;10565824;28;20051;-75
2023/12/05 07:00:18;;;;;;;4.40;3.47;;;;;;;;;;10564541;28;20039;-75
2023/12/05 07:05:23;;;;;;;4.28;3.15;;;;;;;;;;10567715;28;20051;-75
2023/12/05 07:10:26;;;;;;;4.55;2.95;;;;;;;;;;10565677;28;20031;-75
2023/12/05 07:15:29;;;;;;;2.33;2.10;;;;;;;;;;10562503;28;20043;-75
2023/12/05 07:20:34;;;;;;;2.80;2.30;;;;;;;;;;10569776;28;20115;-75
2023/12/05 07:25:37;;;;;;;3.40;2.65;;;;;;;;;;10567106;28;20057;-76
2023/12/05 07:30:40;;;;;;;4.15;2.80;;;;;;;;;;10562017;28;20058;-75
2023/12/05 07:35:45;;;;;;;3.08;2.13;;;;;;;;;;10570155;28;20721;-75
2023/12/05 07:40:48;;;;;;;6.32;3.90;;;;;;;;;;10571309;28;20038;-75
2023/12/05 07:45:51;;;;;;;5.38;3.63;;;;;;;;;;10578760;28;20040;-75
2023/12/05 07:50:56;;;;;;;4.80;2.90;;;;;;;;;;10578132;28;20100;-75
2023/12/05 07:56:00;;;;;;;3.67;3.05;;;;;;;;;;10578058;28;20089;-75
2023/12/05 08:01:03;;;;;;;3.65;2.53;;;;;;;;;;10576946;27;20077;-75
2023/12/05 08:06:09;;;;;;;3.92;2.63;;;;;;;;;;10572145;28;20138;-75
2023/12/05 08:11:12;;;;;;;3.08;2.47;;;;;;;;;;10577963;28;20520;-75
2023/12/05 08:16:16;;;;;;;3.47;2.35;;;;;;;;;;10577444;28;20581;-75
2023/12/05 08:21:21;;;;;;;5.20;3.17;;;;;;;;;;10575323;28;20060;-74
2023/12/05 08:26:24;;;;;;;4.88;2.70;;;;;;;;;;10574937;28;20070;-75
2023/12/05 08:31:27;;;;;;;3.83;2.70;;;;;;;;;;10570361;28;20039;-75
2023/12/05 08:36:32;;;;;;;3.67;2.17;;;;;;;;;;10576143;28;20115;-75
2023/12/05 08:41:35;;;;;;;4.05;2.47;;;;;;;;;;10577210;28;20131;-74
2023/12/05 08:46:38;;;;;;;3.03;2.13;;;;;;;;;;10576143;28;20563;-75
2023/12/05 08:51:43;;;;;;;2.20;2.00;;;;;;;;;;10575477;28;20126;-75
2023/12/05 08:56:47;;;;;;;4.40;2.53;;;;;;;;;;10571083;28;20050;-75
2023/12/05 09:01:50;;;;;;;3.50;2.60;;;;;;;;;;10575794;28;20039;-75
2023/12/05 09:06:55;;;;;;;4.07;2.00;;;;;;;;;;10570699;28;20044;-75
2023/12/05 09:11:59;;;;;;;3.15;2.17;;;;;;;;;;10570258;28;20430;-75
2023/12/05 09:17:03;;;;;;;2.38;1.60;;;;;;;;;;10570309;28;20055;-75
2023/12/05 09:22:07;;;;;;;2.38;1.90;;;;;;;;;;10567392;28;20040;-75
2023/12/05 09:27:10;;;;;;;2.17;1.90;;;;;;;;;;10574423;28;20043;-75
2023/12/05 09:32:14;;;;;;;4.65;2.25;;;;;;;;;;10572073;28;20050;-75
2023/12/05 09:37:18;;;;;;;3.63;1.98;;;;;;;;;;10571651;28;20130;-74
2023/12/05 09:42:25;;;;;;;3.58;1.73;;;;;;;;;;10562240;28;20052;-75
2023/12/05 09:47:29;;;;;;;3.38;1.48;;;;;;;;;;10565998;28;20647;-75
2023/12/05 09:52:34;;;;;;;2.08;1.67;;;;;;;;;;10568951;28;20052;-74
2023/12/05 09:57:40;;;;;;;1.88;1.45;;;;;;;;;;10567702;28;20055;-75
2023/12/05 10:02:46;;;;;;;1.80;1.40;;;;;;;;;;10571482;28;20039;-75
2023/12/05 10:07:51;;;;;;;;;;;;;;;;;;10570379;28;20297;-75
2023/12/05 10:12:55;;;;;;;1.65;1.35;;;;;;;;;;10570355;28;20014;-75
2023/12/05 10:18:00;;;;;;;1.90;1.50;;;;;;;;;;10567402;28;20112;-75
2023/12/05 10:23:04;;;;;;;6.65;2.97;;;;;;;;;;10569579;28;20494;-75
2023/12/05 10:28:08;;;;;;;4.60;2.63;;;;;;;;;;10563775;28;20058;-74
2023/12/05 10:33:13;;;;;;;4.20;3.17;;;;;;;;;;10559678;28;20131;-75
2023/12/05 10:38:19;;;;;;;3.47;2.05;;;;;;;;;;10566534;28;20409;-75
2023/12/05 10:43:24;;;;;;;2.47;2.10;;;;;;;;;;10555679;28;20054;-75
2023/12/05 10:48:28;;;;;;;2.70;1.70;;;;;;;;;;10568257;28;21016;-75
2023/12/05 10:53:35;;;;;;;2.08;1.42;;;;;;;;;;10562861;28;20075;-75
2023/12/05 10:58:40;;;;;;;2.00;1.40;;;;;;;;;;10570278;28;20545;-75
2023/12/05 11:03:45;;;;;;;1.90;1.33;;;;;;;;;;10568534;28;20047;-75
2023/12/05 11:08:49;;;;;;;1.30;1.00;;;;;;;;;;10570818;28;20653;-75
2023/12/05 11:13:53;;;;;;;1.10;0.98;;;;;;;;;;10576558;28;20050;-75
2023/12/05 11:19:09;;;;;;;1.38;1.10;;;;;;;;;;10577141;28;20030;-75
2023/12/05 11:24:33;;;;;;;1.30;1.20;;;;;;;;;;10574706;28;20052;-75
2023/12/05 11:30:08;;;;;;;2.60;1.40;;;;;;;;;;10578993;28;20066;-74
2023/12/05 11:35:16;;;;;;;1.63;1.20;;;;;;;;;;10567503;28;20054;-75
2023/12/05 11:40:21;;;;;;;1.90;1.45;;;;;;;;;;10573830;28;20036;-75
2023/12/05 11:45:25;;;;;;;1.52;1.08;;;;;;;;;;10571267;28;20530;-75
2023/12/05 11:50:40;;;;;;;2.00;1.20;;;;;;;;;;10577253;27;20130;-74
2023/12/05 11:55:47;;;;;;;0.85;0.85;;;;;;;;;;10571263;28;20031;-75
2023/12/05 12:00:51;;;;;;;1.67;1.40;;;;;;;;;;10568157;28;20112;-75
2023/12/05 12:06:02;;;;;;;1.45;1.02;;;;;;;;;;10573835;28;20031;-75
2023/12/05 12:11:07;;;;;;;1.30;1.20;;;;;;;;;;10573391;28;20043;-75
2023/12/05 12:16:14;;;;;;;1.80;1.00;;;;;;;;;;10569581;28;20044;-75
2023/12/05 12:21:17;;;;;;;1.67;1.27;;;;;;;;;;10563038;28;20039;-75
2023/12/05 12:26:22;;;;;;;1.40;0.98;;;;;;;;;;10565915;28;20526;-75
2023/12/05 12:31:26;;;;;;;1.23;0.63;;;;;;;;;;10566514;28;20043;-75
2023/12/05 12:36:31;;;;;;;0.75;0.68;;;;;;;;;;10568662;28;20054;-75
2023/12/05 12:41:36;;;;;;;0.70;0.70;;;;;;;;;;10572507;28;20106;-75
2023/12/05 12:46:40;;;;;;;0.82;0.50;;;;;;;;;;10573219;28;20120;-75
2023/12/05 12:51:45;;;;;;;0.40;0.40;;;;;;;;;;10572119;28;20059;-75
2023/12/05 12:56:50;;;;;;;0.40;0.40;;;;;;;;;;10574397;28;20053;-75
2023/12/05 13:01:54;;;;;;;0.85;0.63;;;;;;;;;;10575499;28;20122;-75
2023/12/05 13:06:57;;;;;;;1.08;0.65;;;;;;;;;;10573640;28;20396;-75
2023/12/05 13:12:02;;;;;;;0.40;0.40;;;;;;;;;;10575180;28;20043;-75
2023/12/05 13:17:08;;;;;;;0.40;0.40;;;;;;;;;;10574660;28;20054;-75
2023/12/05 13:22:11;;;;;;;0.47;0.30;;;;;;;;;;10573726;28;20382;-75
2023/12/05 13:27:16;;;;;;;1.17;0.38;;;;;;;;;;10575716;28;20044;-75
2023/12/05 13:32:19;;;;;;;0.30;0.30;;;;;;;;;;10574000;28;20039;-75
2023/12/05 13:37:23;;;;;;;0.40;0.40;;;;;;;;;;10575507;27;20583;-75
2023/12/05 13:42:28;;;;;;;0.40;0.40;;;;;;;;;;10573365;28;20040;-75
2023/12/05 13:47:31;;;;;;;0.40;0.40;;;;;;;;;;10572196;28;20043;-75
2023/12/05 13:52:34;;;;;;;0.30;0.30;;;;;;;;;;10573282;28;20043;-75
2023/12/05 13:57:39;;;;;;;0.90;0.30;;;;;;;;;;10573724;28;20138;-75
2023/12/05 14:02:44;;;;;;;0.40;0.40;;;;;;;;;;10568229;28;20149;-76
2023/12/05 14:07:47;;;;;;;0.47;0.47;;;;;;;;;;10568461;28;20126;-75
2023/12/05 14:12:52;;;;;;;0.68;0.60;;;;;;;;;;10572330;28;20042;-75
2023/12/05 14:17:55;;;;;;;1.00;0.60;;;;;;;;;;10568256;28;20047;-75
2023/12/05 14:22:59;;;;;;;1.05;0.85;;;;;;;;;;10563751;28;20071;-75
2023/12/05 14:28:04;;;;;;;1.15;0.57;;;;;;;;;;10570553;28;20662;-75
2023/12/05 14:33:07;;;;;;;0.43;0.40;;;;;;;;;;10572808;28;20050;-76
2023/12/05 14:38:15;;;;;;;0.70;0.63;;;;;;;;;;10571272;28;20044;-75
2023/12/05 14:43:20;;;;;;;1.33;0.70;;;;;;;;;;10576358;27;20722;-76
2023/12/05 14:48:24;;;;;;;0.38;0.38;;;;;;;;;;10577775;27;20110;-75
2023/12/05 14:53:27;;;;;;;0.90;0.40;;;;;;;;;;10576885;27;20512;-75
2023/12/05 14:58:31;;;;;;;0.40;0.40;;;;;;;;;;10585736;27;20497;-75
2023/12/05 15:03:35;;;;;;;0.35;0.32;;;;;;;;;;10575839;27;20040;-75
2023/12/05 15:08:39;;;;;;;0.40;0.40;;;;;;;;;;10580656;28;20104;-75
2023/12/05 15:13:44;;;;;;;0.90;0.73;;;;;;;;;;10583543;28;20061;-75
2023/12/05 15:18:47;;;;;;;0.40;0.40;;;;;;;;;;10578393;28;20051;-75
2023/12/05 15:23:51;;;;;;;0.43;0.30;;;;;;;;;;10581014;28;20042;-75
2023/12/05 15:28:55;;;;;;;0.40;0.40;;;;;;;;;;10573254;28;20139;-75
2023/12/05 15:33:58;;;;;;;0.40;0.40;;;;;;;;;;10576778;28;20043;-75
2023/12/05 15:39:03;;;;;;;0.30;0.30;;;;;;;;;;10577057;28;20058;-75
2023/12/05 15:44:09;;;;;;;0.30;0.30;;;;;;;;;;10572407;28;20123;-75
2023/12/05 15:49:13;;;;;;;0.43;0.40;;;;;;;;;;10571020;28;20419;-75
2023/12/05 15:54:16;;;;;;;0.20;0.20;;;;;;;;;;10572297;28;20085;-76
2023/12/05 15:59:20;;;;;;;0.30;0.30;;;;;;;;;;10577744;28;20061;-75
2023/12/05 16:04:24;;;;;;;0.40;0.40;;;;;;;;;;10567017;28;20523;-75
2023/12/05 16:09:28;;;;;;;0.30;0.30;;;;;;;;;;10574458;28;20036;-75
2023/12/05 16:14:33;;;;;;;0.30;0.30;;;;;;;;;;10577189;28;20053;-75
2023/12/05 16:19:38;;;;;;;0.40;0.40;;;;;;;;;;10571355;28;20050;-75
2023/12/05 16:24:42;;;;;;;0.40;0.40;;;;;;;;;;10565373;27;20069;-76
2023/12/05 16:29:46;;;;;;;0.50;0.50;;;;;;;;;;10570797;28;20187;-75
2023/12/05 16:34:50;;;;;;;0.60;0.60;;;;;;;;;;10571075;27;20102;-75
2023/12/05 16:39:54;;;;;;;0.50;0.40;;;;;;;;;;10573433;27;20071;-75
2023/12/05 16:44:58;;;;;;;0.20;0.20;;;;;;;;;;10573255;27;20561;-75
2023/12/05 16:50:03;;;;;;;0.40;0.40;;;;;;;;;;10564850;28;20131;-75
2023/12/05 16:55:07;;;;;;;0.40;0.40;;;;;;;;;;10568319;28;20077;-75
2023/12/05 17:00:13;;;;;;;0.52;0.52;;;;;;;;;;10569603;28;20032;-75
2023/12/05 17:05:17;;;;;;;0.50;0.50;;;;;;;;;;10568548;28;20039;-75
2023/12/05 17:10:20;;;;;;;0.90;0.55;;;;;;;;;;10566974;28;20032;-75
2023/12/05 17:15:26;;;;;;;0.70;0.70;;;;;;;;;;10574314;28;21643;-75
2023/12/05 17:20:29;;;;;;;0.60;0.55;;;;;;;;;;10577222;27;20047;-75
2023/12/05 17:25:32;;;;;;;0.60;0.52;;;;;;;;;;10568259;28;20040;-75
2023/12/05 17:30:37;;;;;;;0.50;0.50;;;;;;;;;;10572046;28;20530;-75
2023/12/05 17:35:42;;;;;;;0.73;0.60;;;;;;;;;;10575343;28;20070;-75
2023/12/05 17:40:45;;;;;;;0.90;0.70;;;;;;;;;;10574765;28;20038;-75
2023/12/05 17:45:50;;;;;;;1.05;0.80;;;;;;;;;;10572201;28;20035;-75
2023/12/05 17:50:53;;;;;;;1.33;1.17;;;;;;;;;;10565099;27;20032;-75
2023/12/05 17:55:56;;;;;;;1.52;1.08;;;;;;;;;;10570620;28;20126;-75
2023/12/05 18:01:02;;;;;;;2.45;1.17;;;;;;;;;;10564258;28;20495;-75
2023/12/05 18:06:07;;;;;;;1.70;1.13;;;;;;;;;;10559340;28;20048;-75
2023/12/05 18:11:10;;;;;;;2.20;1.48;;;;;;;;;;10572551;28;20108;-75
2023/12/05 18:16:17;;;;;;;1.30;1.20;;;;;;;;;;10573093;28;20047;-75
2023/12/05 18:21:20;;;;;;;2.65;1.67;;;;;;;;;;10570034;28;20047;-75
2023/12/05 18:26:24;;;;;;;1.00;0.90;;;;;;;;;;10559470;28;20473;-75
2023/12/05 18:31:29;;;;;;;1.45;1.08;;;;;;;;;;10565508;28;20036;-75
2023/12/05 18:36:32;;;;;;;1.50;0.93;;;;;;;;;;10567030;28;20270;-76
2023/12/05 18:41:35;;;;;;;1.00;0.90;;;;;;;;;;10570029;28;20484;-76
2023/12/05 18:46:40;;;;;;;0.75;0.70;;;;;;;;;;10573249;27;20054;-76
2023/12/05 18:51:43;;;;;;;0.73;0.60;;;;;;;;;;10572480;28;20135;-75
2023/12/05 18:56:46;;;;;;;0.70;0.70;;;;;;;;;;10571491;28;20395;-75
2023/12/05 19:01:51;;;;;;;0.90;0.80;;;;;;;;;;10571452;28;20051;-75
2023/12/05 19:06:55;;;;;;;0.70;0.70;;;;;;;;;;10569953;28;20488;-75
2023/12/05 19:12:04;;;;;;;0.60;0.60;;;;;;;;;;10572313;28;20051;-74
2023/12/05 19:17:09;;;;;;;0.88;0.77;;;;;;;;;;10564632;28;20097;-75
2023/12/05 19:22:13;;;;;;;0.57;0.50;;;;;;;;;;10563095;28;20128;-75
2023/12/05 19:27:17;;;;;;;1.27;0.88;;;;;;;;;;10568677;28;20130;-75
2023/12/05 19:32:22;;;;;;;2.30;1.73;;;;;;;;;;10566926;28;20047;-75
2023/12/05 19:37:25;;;;;;;2.53;1.60;;;;;;;;;;10569231;28;20478;-75
2023/12/05 19:42:30;;;;;;;2.67;1.58;;;;;;;;;;10576553;28;20496;-75
2023/12/05 19:47:36;;;;;;;1.30;1.00;;;;;;;;;;10578584;28;20395;-75
2023/12/05 19:52:39;;;;;;;1.17;0.98;;;;;;;;;;10575021;27;20047;-75
2023/12/05 19:57:43;;;;;;;1.15;0.90;;;;;;;;;;10579651;28;20127;-75
2023/12/05 20:02:47;;;;;;;0.75;0.75;;;;;;;;;;10579226;28;20453;-75
2023/12/05 20:07:51;;;;;;;0.88;0.80;;;;;;;;;;10577432;28;20044;-75
2023/12/05 20:12:54;;;;;;;0.80;0.80;;;;;;;;;;10580497;28;20063;-75
2023/12/05 20:17:59;;;;;;;0.50;0.50;;;;;;;;;;10581841;27;20032;-75
2023/12/05 20:23:02;;;;;;;1.27;0.80;;;;;;;;;;10578880;28;20419;-75
2023/12/05 20:28:05;;;;;;;3.03;1.77;;;;;;;;;;10576176;28;20388;-75
2023/12/05 20:33:10;;;;;;;2.40;1.35;;;;;;;;;;10577112;28;20407;-75
2023/12/05 20:38:13;;;;;;;1.25;0.80;;;;;;;;;;10576553;28;20530;-75
2023/12/05 20:43:17;;;;;;;1.17;0.90;;;;;;;;;;10578849;28;20551;-75
2023/12/05 20:48:22;;;;;;;0.68;0.68;;;;;;;;;;10577915;28;20679;-75
2023/12/05 20:53:25;;;;;;;0.70;0.70;;;;;;;;;;10576651;28;20050;-75
2023/12/05 20:58:28;;;;;;;0.70;0.63;;;;;;;;;;10574099;28;20040;-75
2023/12/05 21:03:34;;;;;;;1.05;0.93;;;;;;;;;;10576354;28;20031;-76
2023/12/05 21:08:39;;;;;;;1.47;1.13;;;;;;;;;;10573709;28;20451;-76
2023/12/05 21:13:43;;;;;;;2.75;1.60;;;;;;;;;;10573598;28;20070;-75
2023/12/05 21:18:47;;;;;;;2.42;1.67;;;;;;;;;;10576247;28;20044;-75
2023/12/05 21:23:50;;;;;;;2.92;1.80;;;;;;;;;;10572738;28;20043;-75
2023/12/05 21:28:54;;;;;;;2.97;2.08;;;;;;;;;;10574428;28;20103;-75
2023/12/05 21:33:59;;;;;;;2.80;1.90;;;;;;;;;;10575512;28;20067;-75
2023/12/05 21:39:02;;;;;;;3.45;1.40;;;;;;;;;;10573562;28;20373;-75
2023/12/05 21:44:05;;;;;;;2.03;1.20;;;;;;;;;;10575722;28;20042;-75
2023/12/05 21:49:10;;;;;;;1.50;1.20;;;;;;;;;;10574259;28;20036;-75
2023/12/05 21:54:13;;;;;;;1.67;1.58;;;;;;;;;;10574602;28;20396;-75
2023/12/05 21:59:18;;;;;;;2.50;1.88;;;;;;;;;;10573857;28;20039;-75
2023/12/05 22:04:23;;;;;;;3.38;2.13;;;;;;;;;;10571069;28;20046;-75
2023/12/05 22:09:26;;;;;;;7.18;4.07;;;;;;;;;;10569183;28;20649;-75
2023/12/05 22:14:30;;;;;;;3.65;2.30;;;;;;;;;;10572974;28;20043;-75
2023/12/05 22:19:34;;;;;;;2.80;2.10;;;;;;;;;;10567088;28;20054;-75
2023/12/05 22:24:37;;;;;;;6.28;3.28;;;;;;;;;;10569648;27;20063;-75
2023/12/05 22:29:45;;;;;;;3.58;2.55;;;;;;;;;;10567058;28;20044;-75
2023/12/05 22:34:49;;;;;;;4.32;3.03;;;;;;;;;;10570627;28;20055;-75
2023/12/05 22:39:53;;;;;;;3.35;1.40;;;;;;;;;;10571886;28;20078;-75
2023/12/05 22:44:56;;;;;;;1.65;1.40;;;;;;;;;;10571804;27;20040;-75
2023/12/05 22:50:00;;;;;;;1.23;1.00;;;;;;;;;;10567763;28;20050;-75
2023/12/05 22:55:04;;;;;;;2.15;1.17;;;;;;;;;;10575448;28;20480;-75
2023/12/05 23:00:12;;;;;;;2.00;1.10;;;;;;;;;;10572398;28;20126;-75
2023/12/05 23:05:17;;;;;;;1.25;1.15;;;;;;;;;;10570434;28;20040;-75
2023/12/05 23:10:21;;;;;;;1.20;1.10;;;;;;;;;;10565469;28;20143;-75
2023/12/05 23:15:24;;;;;;;2.72;1.35;;;;;;;;;;10569345;28;20090;-75
2023/12/05 23:20:29;;;;;;;1.30;1.10;;;;;;;;;;10571726;28;20407;-75
2023/12/05 23:25:32;;;;;;;0.70;0.70;;;;;;;;;;10570912;28;20118;-75
2023/12/05 23:30:36;;;;;;;0.70;0.70;;;;;;;;;;10568385;28;20039;-75
2023/12/05 23:35:40;;;;;;;0.57;0.57;;;;;;;;;;10566923;28;21105;-75
2023/12/05 23:40:44;;;;;;;0.50;0.50;;;;;;;;;;10569396;28;20127;-75
2023/12/05 23:45:47;;;;;;;0.65;0.60;;;;;;;;;;10569156;28;20031;-75
2023/12/05 23:50:51;;;;;;;0.45;0.45;;;;;;;;;;10570249;28;20126;-75
2023/12/05 23:55:55;;;;;;;0.52;0.52;;;;;;;;;;10585454;22;20514;-75
